Time;durP1;ratioP1;P1;durP2;ratioP2;P2;SDS_P1;SDS_P2;PMS_P1;PMS_P2;Temp;Humidity;BMP_temperature;BMP_pressure;BME280_temperature;BME280_humidity;BME280_pressure;Samples;Min_cycle;Max_cycle;Signal;HPM_P1;HPM_P2
2022/04/30 00:00:29;;;;;;;9.50;7.72;;;;;;;;;;2066961;28;20184;-52
2022/04/30 00:01:31;;;;;;;10.38;8.15;;;;;;;;;;2067325;28;20165;-54
2022/04/30 00:02:31;;;;;;;8.38;7.53;;;;;;;;;;2075468;28;20179;-56
2022/04/30 00:03:31;;;;;;;9.75;6.82;;;;;;;;;;2076569;28;20176;-61
2022/04/30 00:04:35;;;;;;;11.55;9.52;;;;;;;;;;2066503;28;20584;-53
2022/04/30 00:05:36;;;;;;;7.90;6.15;;;;;;;;;;2067066;28;20694;-54
2022/04/30 00:06:37;;;;;;;6.88;6.13;;;;;;;;;;2058598;28;20195;-51
2022/04/30 00:07:38;;;;;;;7.07;6.38;;;;;;;;;;2058621;28;20182;-51
2022/04/30 00:08:38;;;;;;;12.00;10.23;;;;;;;;;;2064822;28;20166;-50
2022/04/30 00:09:39;;;;;;;8.85;7.93;;;;;;;;;;2066064;28;20184;-50
2022/04/30 00:10:39;;;;;;;8.38;7.20;;;;;;;;;;2073291;28;20180;-49
2022/04/30 00:11:39;;;;;;;8.52;6.68;;;;;;;;;;2065167;28;20173;-50
2022/04/30 00:12:40;;;;;;;8.13;6.60;;;;;;;;;;2064907;28;20193;-55
2022/04/30 00:13:40;;;;;;;10.25;6.65;;;;;;;;;;2064612;28;20177;-51
2022/04/30 00:14:40;;;;;;;8.13;6.65;;;;;;;;;;2064473;28;20162;-51
2022/04/30 00:15:41;;;;;;;8.98;7.18;;;;;;;;;;2073317;28;20541;-50
2022/04/30 00:16:41;;;;;;;7.20;6.60;;;;;;;;;;2073663;28;20172;-52
2022/04/30 00:17:43;;;;;;;9.35;7.38;;;;;;;;;;2074369;28;20212;-53
2022/04/30 00:18:45;;;;;;;8.45;7.30;;;;;;;;;;2074171;28;20164;-52
2022/04/30 00:19:45;;;;;;;8.98;6.43;;;;;;;;;;2074937;28;20181;-53
2022/04/30 00:20:46;;;;;;;10.95;6.75;;;;;;;;;;2075955;28;20175;-55
2022/04/30 00:21:47;;;;;;;9.13;6.28;;;;;;;;;;2066732;28;20241;-57
2022/04/30 00:22:47;;;;;;;8.07;7.07;;;;;;;;;;2066215;28;20654;-52
2022/04/30 00:23:48;;;;;;;8.23;7.13;;;;;;;;;;2073945;28;20196;-52
2022/04/30 00:24:49;;;;;;;7.32;6.53;;;;;;;;;;2074244;28;20626;-58
2022/04/30 00:25:53;;;;;;;9.85;6.63;;;;;;;;;;2065183;28;20185;-52
2022/04/30 00:26:55;;;;;;;8.25;6.80;;;;;;;;;;2057087;28;20182;-51
2022/04/30 00:27:56;;;;;;;11.35;6.82;;;;;;;;;;2065227;28;20282;-50
2022/04/30 00:28:56;;;;;;;7.15;6.45;;;;;;;;;;2074080;28;20351;-46
2022/04/30 00:29:58;;;;;;;7.38;6.63;;;;;;;;;;2073977;28;20177;-51
2022/04/30 00:30:59;;;;;;;8.00;6.47;;;;;;;;;;2074599;28;20247;-51
2022/04/30 00:32:03;;;;;;;10.20;7.32;;;;;;;;;;2073182;28;20180;-53
2022/04/30 00:33:09;;;;;;;7.25;6.38;;;;;;;;;;2064563;28;20158;-52
2022/04/30 00:34:09;;;;;;;7.93;7.13;;;;;;;;;;2063977;28;20662;-52
2022/04/30 00:35:10;;;;;;;7.07;6.47;;;;;;;;;;2064930;28;20229;-53
2022/04/30 00:36:10;;;;;;;10.37;7.40;;;;;;;;;;2064762;28;20171;-51
2022/04/30 00:37:10;;;;;;;10.00;7.10;;;;;;;;;;2064786;28;20637;-52
2022/04/30 00:38:11;;;;;;;10.25;7.13;;;;;;;;;;2073446;28;20252;-51
2022/04/30 00:39:11;;;;;;;8.88;7.18;;;;;;;;;;2072829;28;20689;-49
2022/04/30 00:40:12;;;;;;;9.75;6.20;;;;;;;;;;2073236;28;20243;-50
2022/04/30 00:41:12;;;;;;;10.85;7.13;;;;;;;;;;2064560;28;20597;-51
2022/04/30 00:42:12;;;;;;;8.65;6.75;;;;;;;;;;2064807;28;20232;-50
2022/04/30 00:43:13;;;;;;;13.35;7.00;;;;;;;;;;2079981;28;20190;-51
2022/04/30 00:44:19;;;;;;;9.68;6.75;;;;;;;;;;2075315;28;20192;-54
2022/04/30 00:45:20;;;;;;;8.00;6.82;;;;;;;;;;2073629;28;20173;-52
2022/04/30 00:46:22;;;;;;;9.77;7.13;;;;;;;;;;2073126;28;20223;-49
2022/04/30 00:47:22;;;;;;;7.65;6.95;;;;;;;;;;2073636;28;20196;-54
2022/04/30 00:48:23;;;;;;;10.30;7.17;;;;;;;;;;2074190;28;20169;-56
2022/04/30 00:49:23;;;;;;;7.90;6.90;;;;;;;;;;2075189;28;20307;-56
2022/04/30 00:50:26;;;;;;;7.72;6.93;;;;;;;;;;2075918;28;20201;-56
2022/04/30 00:51:26;;;;;;;8.52;7.63;;;;;;;;;;2071804;28;20243;-55
2022/04/30 00:52:27;;;;;;;7.70;7.00;;;;;;;;;;2074848;28;20176;-54
2022/04/30 00:53:27;;;;;;;9.05;7.38;;;;;;;;;;2078376;28;20286;-51
2022/04/30 00:54:29;;;;;;;8.88;7.13;;;;;;;;;;2077251;28;20177;-57
2022/04/30 00:55:29;;;;;;;8.13;7.25;;;;;;;;;;2077201;28;20193;-58
2022/04/30 00:56:32;;;;;;;9.27;7.15;;;;;;;;;;2074826;28;20172;-56
2022/04/30 00:57:33;;;;;;;9.98;6.82;;;;;;;;;;2069414;28;20275;-57
2022/04/30 00:58:34;;;;;;;8.02;7.10;;;;;;;;;;2074284;28;20177;-59
2022/04/30 00:59:37;;;;;;;12.60;7.57;;;;;;;;;;2074097;28;20177;-58
2022/04/30 01:00:40;;;;;;;10.45;7.38;;;;;;;;;;2064859;28;20235;-57
2022/04/30 01:01:50;;;;;;;7.45;6.60;;;;;;;;;;2071618;28;20633;-56
2022/04/30 01:03:11;;;;;;;8.75;6.88;;;;;;;;;;2070646;28;20164;-51
2022/04/30 01:04:19;;;;;;;9.18;7.65;;;;;;;;;;2063221;28;20241;-58
2022/04/30 01:05:19;;;;;;;8.10;7.20;;;;;;;;;;2067170;28;20333;-58
2022/04/30 01:06:24;;;;;;;9.35;6.88;;;;;;;;;;2075880;28;20184;-53
2022/04/30 01:07:26;;;;;;;7.60;6.63;;;;;;;;;;2074318;28;20172;-56
2022/04/30 01:08:29;;;;;;;8.10;7.23;;;;;;;;;;2075381;28;20177;-56
2022/04/30 01:09:31;;;;;;;10.00;7.30;;;;;;;;;;2077993;28;20213;-51
2022/04/30 01:10:32;;;;;;;9.50;6.88;;;;;;;;;;2076773;28;20176;-56
2022/04/30 01:11:34;;;;;;;10.55;7.68;;;;;;;;;;2076061;28;20223;-54
2022/04/30 01:12:34;;;;;;;9.50;7.93;;;;;;;;;;2059538;28;20505;-55
2022/04/30 01:13:36;;;;;;;12.85;7.40;;;;;;;;;;2051290;28;20174;-51
2022/04/30 01:14:37;;;;;;;9.93;7.13;;;;;;;;;;2067563;28;20193;-56
2022/04/30 01:15:39;;;;;;;8.43;7.63;;;;;;;;;;2075274;28;20180;-56
2022/04/30 01:16:40;;;;;;;9.98;7.85;;;;;;;;;;2074954;28;20552;-55
2022/04/30 01:17:42;;;;;;;8.65;7.57;;;;;;;;;;2074980;28;20213;-56
2022/04/30 01:18:42;;;;;;;9.02;6.55;;;;;;;;;;2075257;28;20596;-57
2022/04/30 01:19:43;;;;;;;8.85;7.00;;;;;;;;;;2075471;28;20193;-57
2022/04/30 01:20:51;;;;;;;10.70;7.35;;;;;;;;;;2075768;28;20192;-56
2022/04/30 01:21:52;;;;;;;9.73;7.47;;;;;;;;;;2072631;28;20197;-57
2022/04/30 01:23:03;;;;;;;12.18;7.57;;;;;;;;;;2075418;28;20181;-56
2022/04/30 01:24:03;;;;;;;13.10;7.67;;;;;;;;;;2074015;28;20248;-57
2022/04/30 01:25:04;;;;;;;8.50;7.65;;;;;;;;;;2075449;28;20244;-57
2022/04/30 01:26:04;;;;;;;11.15;7.45;;;;;;;;;;2074963;28;20169;-56
2022/04/30 01:27:05;;;;;;;11.18;7.43;;;;;;;;;;2075019;28;20172;-56
2022/04/30 01:28:06;;;;;;;8.37;7.57;;;;;;;;;;2075390;28;20188;-59
2022/04/30 01:29:06;;;;;;;8.05;7.25;;;;;;;;;;2075616;28;20168;-56
2022/04/30 01:30:06;;;;;;;11.10;7.32;;;;;;;;;;2075452;28;20197;-54
2022/04/30 01:37:22;;;;;;;10.10;7.60;;;;;;;;;;2066802;28;20196;-58
2022/04/30 01:37:54;;;;;;;9.15;7.63;;;;;;;;;;2079310;28;20274;-53
2022/04/30 01:38:59;;;;;;;7.72;6.90;;;;;;;;;;2078537;28;20176;-54
2022/04/30 01:40:00;;;;;;;8.32;7.35;;;;;;;;;;2066873;28;20192;-54
2022/04/30 01:41:00;;;;;;;14.00;7.80;;;;;;;;;;2067218;28;20177;-55
2022/04/30 01:42:11;;;;;;;8.10;7.33;;;;;;;;;;2072834;28;20256;-51
2022/04/30 01:43:11;;;;;;;13.40;7.25;;;;;;;;;;2075637;28;20185;-53
2022/04/30 01:44:12;;;;;;;8.17;7.37;;;;;;;;;;2075928;28;20240;-54
2022/04/30 01:45:14;;;;;;;8.37;7.57;;;;;;;;;;2076403;28;20173;-56
2022/04/30 01:46:14;;;;;;;8.90;8.00;;;;;;;;;;2077152;28;20716;-54
2022/04/30 01:47:15;;;;;;;9.50;7.80;;;;;;;;;;2076725;28;20256;-55
2022/04/30 01:48:16;;;;;;;9.32;7.30;;;;;;;;;;2077065;28;20183;-53
2022/04/30 01:49:16;;;;;;;9.53;7.40;;;;;;;;;;2075807;28;20622;-56
2022/04/30 01:50:16;;;;;;;10.80;7.33;;;;;;;;;;2075944;28;20177;-54
2022/04/30 01:51:17;;;;;;;13.43;8.37;;;;;;;;;;2072974;28;20173;-51
2022/04/30 01:52:18;;;;;;;9.93;8.20;;;;;;;;;;2067923;28;20618;-53
2022/04/30 01:53:18;;;;;;;8.23;6.97;;;;;;;;;;2068870;28;20630;-57
2022/04/30 01:54:18;;;;;;;11.93;7.95;;;;;;;;;;2074044;28;20181;-54
2022/04/30 01:55:19;;;;;;;7.60;6.85;;;;;;;;;;2074680;28;20202;-55
2022/04/30 01:56:20;;;;;;;10.77;7.28;;;;;;;;;;2076208;28;20668;-52
2022/04/30 01:57:40;;;;;;;10.27;8.15;;;;;;;;;;2068907;28;20197;-52
2022/04/30 01:58:40;;;;;;;10.32;7.43;;;;;;;;;;2074388;28;20169;-54
2022/04/30 01:59:40;;;;;;;9.65;8.15;;;;;;;;;;2070778;28;20166;-53
2022/04/30 02:00:41;;;;;;;9.83;7.90;;;;;;;;;;2060124;28;20222;-59
2022/04/30 02:01:42;;;;;;;8.60;7.60;;;;;;;;;;2068973;28;20580;-56
2022/04/30 02:02:43;;;;;;;12.15;8.38;;;;;;;;;;2068067;28;20547;-52
2022/04/30 02:03:43;;;;;;;11.50;7.65;;;;;;;;;;2067298;28;20169;-55
2022/04/30 02:04:44;;;;;;;8.83;7.63;;;;;;;;;;2075039;28;20173;-51
2022/04/30 02:05:44;;;;;;;13.55;7.55;;;;;;;;;;2075433;28;20256;-53
2022/04/30 02:06:45;;;;;;;13.65;8.27;;;;;;;;;;2067013;28;20582;-54
2022/04/30 02:07:46;;;;;;;10.57;8.15;;;;;;;;;;2066717;28;20192;-50
2022/04/30 02:08:46;;;;;;;10.10;7.47;;;;;;;;;;2075263;28;20673;-55
2022/04/30 02:09:51;;;;;;;9.18;7.28;;;;;;;;;;2068356;28;20208;-48
2022/04/30 02:10:51;;;;;;;11.05;8.35;;;;;;;;;;2075842;28;20636;-55
2022/04/30 02:11:51;;;;;;;10.80;8.13;;;;;;;;;;2075949;28;20257;-59
2022/04/30 02:12:52;;;;;;;9.50;7.45;;;;;;;;;;2076647;28;20244;-52
2022/04/30 02:13:56;;;;;;;11.23;8.05;;;;;;;;;;2074612;28;20249;-51
2022/04/30 02:14:57;;;;;;;11.87;8.43;;;;;;;;;;2067135;28;20178;-54
2022/04/30 02:15:57;;;;;;;13.40;8.02;;;;;;;;;;2066897;28;20181;-56
2022/04/30 02:16:59;;;;;;;9.90;7.40;;;;;;;;;;2075957;28;20177;-56
2022/04/30 02:18:00;;;;;;;9.60;7.65;;;;;;;;;;2075962;28;20184;-53
2022/04/30 02:19:01;;;;;;;8.63;7.75;;;;;;;;;;2075812;28;20173;-54
2022/04/30 02:21:23;;;;;;;11.68;7.93;;;;;;;;;;2074682;28;20273;-51
2022/04/30 02:22:23;;;;;;;11.93;7.70;;;;;;;;;;2068326;28;20173;-54
2022/04/30 02:23:24;;;;;;;9.27;8.13;;;;;;;;;;2064014;28;20682;-50
2022/04/30 02:24:26;;;;;;;10.83;7.80;;;;;;;;;;2066511;28;20231;-49
2022/04/30 02:25:26;;;;;;;12.13;7.55;;;;;;;;;;2074609;28;20177;-56
2022/04/30 02:26:27;;;;;;;9.13;8.10;;;;;;;;;;2074471;28;20166;-53
2022/04/30 02:27:27;;;;;;;9.83;8.57;;;;;;;;;;2074758;28;20634;-51
2022/04/30 02:28:27;;;;;;;14.27;8.65;;;;;;;;;;2074381;28;20204;-51
2022/04/30 02:29:28;;;;;;;10.10;8.30;;;;;;;;;;2073869;28;20180;-52
2022/04/30 02:30:29;;;;;;;8.48;7.63;;;;;;;;;;2074587;28;20185;-51
2022/04/30 02:31:29;;;;;;;9.23;8.43;;;;;;;;;;2074774;28;20208;-55
2022/04/30 02:32:37;;;;;;;8.52;7.72;;;;;;;;;;2074449;28;20177;-52
2022/04/30 02:33:40;;;;;;;13.20;8.25;;;;;;;;;;2074570;28;20648;-49
2022/04/30 02:34:40;;;;;;;10.00;8.70;;;;;;;;;;2073082;28;20169;-50
2022/04/30 02:35:44;;;;;;;10.87;8.40;;;;;;;;;;2074466;28;20713;-53
2022/04/30 02:36:44;;;;;;;9.97;7.37;;;;;;;;;;2074411;28;20219;-50
2022/04/30 02:37:48;;;;;;;8.93;7.73;;;;;;;;;;2074234;28;20213;-54
2022/04/30 02:38:48;;;;;;;11.00;7.63;;;;;;;;;;2074400;28;20234;-52
2022/04/30 02:39:48;;;;;;;12.40;7.73;;;;;;;;;;2065280;28;20178;-53
2022/04/30 02:40:48;;;;;;;9.70;8.30;;;;;;;;;;2065442;28;20188;-49
2022/04/30 02:41:49;;;;;;;14.67;8.10;;;;;;;;;;2074027;28;20173;-54
2022/04/30 02:42:51;;;;;;;9.60;7.67;;;;;;;;;;2073578;28;20177;-51
2022/04/30 02:43:51;;;;;;;9.43;8.47;;;;;;;;;;2074042;28;20214;-59
2022/04/30 02:44:52;;;;;;;9.30;8.40;;;;;;;;;;2082442;28;20169;-53
2022/04/30 02:45:53;;;;;;;8.47;7.67;;;;;;;;;;2073978;28;20177;-49
2022/04/30 02:46:54;;;;;;;8.93;7.47;;;;;;;;;;2069146;28;20177;-53
2022/04/30 02:47:56;;;;;;;10.67;7.57;;;;;;;;;;2060519;28;20193;-53
2022/04/30 02:48:57;;;;;;;9.07;7.93;;;;;;;;;;2056348;28;20655;-50
2022/04/30 02:49:57;;;;;;;10.77;7.93;;;;;;;;;;2069469;28;20223;-52
2022/04/30 02:51:00;;;;;;;10.88;8.75;;;;;;;;;;2072347;28;20201;-54
2022/04/30 02:52:00;;;;;;;12.10;8.50;;;;;;;;;;2066645;28;20237;-51
2022/04/30 02:53:01;;;;;;;9.67;8.30;;;;;;;;;;2071154;28;20180;-53
2022/04/30 02:54:01;;;;;;;11.00;8.17;;;;;;;;;;2075072;28;20701;-51
2022/04/30 02:55:02;;;;;;;12.77;8.43;;;;;;;;;;2075327;28;20177;-52
2022/04/30 02:56:02;;;;;;;9.40;8.05;;;;;;;;;;2074860;28;20297;-56
2022/04/30 02:57:03;;;;;;;11.60;8.20;;;;;;;;;;2074350;28;20315;-52
2022/04/30 03:00:48;;;;;;;9.03;7.90;;;;;;;;;;2073208;28;20177;-51
2022/04/30 03:01:54;;;;;;;8.53;7.53;;;;;;;;;;2073674;28;20207;-53
2022/04/30 03:03:06;;;;;;;9.87;7.93;;;;;;;;;;2065504;28;20205;-53
2022/04/30 03:04:07;;;;;;;10.37;7.43;;;;;;;;;;2064940;28;20193;-51
2022/04/30 03:05:07;;;;;;;13.97;8.73;;;;;;;;;;2074087;28;20165;-51
2022/04/30 03:06:09;;;;;;;12.67;7.60;;;;;;;;;;2073822;28;20208;-52
2022/04/30 03:07:11;;;;;;;11.30;8.50;;;;;;;;;;2074165;28;20637;-51
2022/04/30 03:08:12;;;;;;;10.10;7.90;;;;;;;;;;2073946;28;20216;-51
2022/04/30 03:09:12;;;;;;;9.13;8.17;;;;;;;;;;2074037;28;20637;-52
2022/04/30 03:10:13;;;;;;;9.10;8.13;;;;;;;;;;2073903;28;20213;-52
2022/04/30 03:11:13;;;;;;;12.27;7.57;;;;;;;;;;2074214;28;20169;-52
2022/04/30 03:12:14;;;;;;;14.10;8.80;;;;;;;;;;2074071;28;20169;-50
2022/04/30 03:13:14;;;;;;;10.90;8.47;;;;;;;;;;2074893;28;20197;-54
2022/04/30 03:14:15;;;;;;;12.90;8.67;;;;;;;;;;2073414;28;20212;-50
2022/04/30 03:15:17;;;;;;;13.13;8.33;;;;;;;;;;2067047;28;20272;-57
2022/04/30 03:21:42;;;;;;;11.00;7.40;;;;;;;;;;2067316;28;20607;-53
2022/04/30 03:22:42;;;;;;;11.13;8.67;;;;;;;;;;2073805;28;20344;-49
2022/04/30 03:23:43;;;;;;;11.90;8.80;;;;;;;;;;2072094;28;20662;-55
2022/04/30 03:24:43;;;;;;;14.30;8.43;;;;;;;;;;2064663;28;20173;-52
2022/04/30 03:25:44;;;;;;;9.50;7.63;;;;;;;;;;2064412;28;20257;-54
2022/04/30 03:26:45;;;;;;;13.90;9.13;;;;;;;;;;2064444;28;20173;-52
2022/04/30 03:27:45;;;;;;;13.40;8.40;;;;;;;;;;2056744;28;20213;-50
2022/04/30 03:28:47;;;;;;;10.30;7.73;;;;;;;;;;2057985;28;20306;-53
2022/04/30 03:29:47;;;;;;;12.23;8.67;;;;;;;;;;2065322;28;20202;-46
2022/04/30 03:30:47;;;;;;;14.50;8.87;;;;;;;;;;2072077;28;20710;-52
2022/04/30 03:31:49;;;;;;;9.57;8.57;;;;;;;;;;2071251;28;20264;-52
2022/04/30 03:32:49;;;;;;;12.87;8.20;;;;;;;;;;2070281;28;20224;-51
2022/04/30 03:33:50;;;;;;;9.53;7.73;;;;;;;;;;2075434;28;21052;-56
2022/04/30 03:34:51;;;;;;;10.60;8.50;;;;;;;;;;2074186;28;20602;-50
2022/04/30 03:35:52;;;;;;;11.93;8.77;;;;;;;;;;2073755;28;20259;-53
2022/04/30 03:36:52;;;;;;;14.13;8.70;;;;;;;;;;2073773;28;20504;-54
2022/04/30 03:37:52;;;;;;;9.47;8.07;;;;;;;;;;2074030;28;20244;-55
2022/04/30 03:38:53;;;;;;;13.63;9.77;;;;;;;;;;2073594;28;20169;-54
2022/04/30 03:39:54;;;;;;;9.43;8.00;;;;;;;;;;2071562;28;20215;-52
2022/04/30 03:40:54;;;;;;;10.53;8.50;;;;;;;;;;2067816;28;20166;-50
2022/04/30 03:41:54;;;;;;;13.73;8.13;;;;;;;;;;2073496;28;20239;-51
2022/04/30 03:42:54;;;;;;;9.53;8.50;;;;;;;;;;2074483;28;20181;-49
2022/04/30 03:43:55;;;;;;;10.30;9.30;;;;;;;;;;2073528;28;20657;-51
2022/04/30 03:44:55;;;;;;;12.53;8.60;;;;;;;;;;2072611;28;20172;-52
2022/04/30 03:45:55;;;;;;;10.93;8.80;;;;;;;;;;2073676;28;20172;-55
2022/04/30 03:46:56;;;;;;;9.93;8.47;;;;;;;;;;2073480;28;20559;-49
2022/04/30 03:47:56;;;;;;;12.50;8.53;;;;;;;;;;2073807;28;20619;-49
2022/04/30 03:48:56;;;;;;;9.57;8.03;;;;;;;;;;2073934;28;20289;-50
2022/04/30 03:49:59;;;;;;;11.83;8.63;;;;;;;;;;2073897;28;20196;-50
2022/04/30 03:51:02;;;;;;;9.03;8.13;;;;;;;;;;2073191;28;20653;-52
2022/04/30 03:52:02;;;;;;;10.53;8.53;;;;;;;;;;2070532;28;20177;-49
2022/04/30 03:53:03;;;;;;;11.87;8.97;;;;;;;;;;2072927;28;20169;-51
2022/04/30 03:54:03;;;;;;;10.90;8.40;;;;;;;;;;2072827;28;20733;-49
2022/04/30 03:55:03;;;;;;;10.40;8.87;;;;;;;;;;2070303;28;20186;-51
2022/04/30 03:56:04;;;;;;;9.87;8.83;;;;;;;;;;2068655;28;20184;-49
2022/04/30 03:57:04;;;;;;;9.57;8.47;;;;;;;;;;2063853;28;20178;-50
2022/04/30 03:58:05;;;;;;;11.70;9.17;;;;;;;;;;2064440;28;20235;-52
2022/04/30 03:59:05;;;;;;;11.90;8.87;;;;;;;;;;2073737;28;20173;-49
2022/04/30 04:00:06;;;;;;;11.70;8.80;;;;;;;;;;2064691;28;20294;-51
2022/04/30 04:01:14;;;;;;;10.90;8.43;;;;;;;;;;2066013;28;20196;-51
2022/04/30 04:02:14;;;;;;;11.03;8.30;;;;;;;;;;2074052;28;20250;-55
2022/04/30 04:03:14;;;;;;;12.40;8.10;;;;;;;;;;2072722;28;20172;-52
2022/04/30 04:04:15;;;;;;;12.43;9.20;;;;;;;;;;2076239;28;20203;-51
2022/04/30 04:05:17;;;;;;;12.63;9.20;;;;;;;;;;2069314;28;20716;-53
2022/04/30 04:06:17;;;;;;;12.67;9.20;;;;;;;;;;2065105;28;20690;-52
2022/04/30 04:07:17;;;;;;;14.03;8.77;;;;;;;;;;2077110;28;20187;-51
2022/04/30 04:08:20;;;;;;;10.17;8.83;;;;;;;;;;2070615;28;20184;-52
2022/04/30 04:09:20;;;;;;;14.03;8.90;;;;;;;;;;2059123;28;20213;-54
2022/04/30 04:10:20;;;;;;;12.57;9.23;;;;;;;;;;2071178;28;20176;-53
2022/04/30 04:11:23;;;;;;;11.03;8.47;;;;;;;;;;2075368;28;20169;-49
2022/04/30 04:12:24;;;;;;;11.23;8.87;;;;;;;;;;2078437;28;20194;-51
2022/04/30 04:17:39;;;;;;;10.80;7.70;;;;;;;;;;2073252;28;20271;-54
2022/04/30 04:18:39;;;;;;;8.30;7.47;;;;;;;;;;2066052;28;20290;-54
2022/04/30 04:19:40;;;;;;;9.87;8.43;;;;;;;;;;2075886;28;20821;-53
2022/04/30 04:20:41;;;;;;;12.67;8.87;;;;;;;;;;2064677;28;20563;-53
2022/04/30 04:21:42;;;;;;;14.37;8.37;;;;;;;;;;2063169;28;20301;-51
2022/04/30 04:22:42;;;;;;;10.07;8.67;;;;;;;;;;2073511;28;20181;-53
2022/04/30 04:26:23;;;;;;;14.87;8.50;;;;;;;;;;2065688;28;20253;-51
2022/04/30 04:27:24;;;;;;;13.40;8.47;;;;;;;;;;2065302;28;20185;-53
2022/04/30 04:28:24;;;;;;;9.20;8.20;;;;;;;;;;2065774;28;20174;-50
2022/04/30 04:29:24;;;;;;;11.50;8.47;;;;;;;;;;2065151;28;20185;-53
2022/04/30 04:30:26;;;;;;;11.23;7.90;;;;;;;;;;2065356;28;20177;-50
2022/04/30 04:31:27;;;;;;;13.20;8.98;;;;;;;;;;2065349;28;20661;-51
2022/04/30 04:32:27;;;;;;;11.63;8.40;;;;;;;;;;2056777;28;20281;-50
2022/04/30 04:33:27;;;;;;;10.00;9.03;;;;;;;;;;2055611;28;20178;-50
2022/04/30 04:34:27;;;;;;;15.63;8.77;;;;;;;;;;2056589;28;20206;-50
2022/04/30 04:35:28;;;;;;;11.17;8.40;;;;;;;;;;2065201;28;20244;-49
2022/04/30 04:36:28;;;;;;;11.03;8.50;;;;;;;;;;2060725;28;21498;-52
2022/04/30 04:37:28;;;;;;;11.97;7.97;;;;;;;;;;2056428;28;20686;-52
2022/04/30 04:38:32;;;;;;;11.63;8.57;;;;;;;;;;2065068;28;20173;-50
2022/04/30 04:39:32;;;;;;;14.00;7.93;;;;;;;;;;2065596;28;20799;-51
2022/04/30 04:40:32;;;;;;;9.03;8.13;;;;;;;;;;2065558;28;20176;-50
2022/04/30 04:41:32;;;;;;;13.63;8.87;;;;;;;;;;2065304;28;20212;-50
2022/04/30 04:42:33;;;;;;;11.50;8.83;;;;;;;;;;2066469;28;20171;-50
2022/04/30 04:43:33;;;;;;;9.67;8.20;;;;;;;;;;2066474;28;20166;-50
2022/04/30 04:44:33;;;;;;;10.03;8.90;;;;;;;;;;2064552;28;20269;-51
2022/04/30 04:45:34;;;;;;;10.47;8.07;;;;;;;;;;2073392;28;20184;-51
2022/04/30 04:46:35;;;;;;;10.93;8.60;;;;;;;;;;2073818;28;20205;-50
2022/04/30 04:47:35;;;;;;;12.52;8.45;;;;;;;;;;2073504;28;20176;-50
2022/04/30 04:48:36;;;;;;;11.23;8.00;;;;;;;;;;2073944;28;20192;-51
2022/04/30 04:49:36;;;;;;;9.40;8.33;;;;;;;;;;2067297;28;20212;-52
2022/04/30 04:50:38;;;;;;;9.25;8.07;;;;;;;;;;2065640;28;20185;-50
2022/04/30 04:51:39;;;;;;;13.40;8.50;;;;;;;;;;2065087;28;20212;-51
2022/04/30 04:52:42;;;;;;;11.87;8.87;;;;;;;;;;2060094;28;20182;-53
2022/04/30 04:53:43;;;;;;;12.23;8.43;;;;;;;;;;2057406;28;20174;-49
2022/04/30 04:54:43;;;;;;;11.30;7.80;;;;;;;;;;2065285;28;20510;-53
2022/04/30 04:55:43;;;;;;;13.38;8.68;;;;;;;;;;2065718;28;20544;-54
2022/04/30 04:56:44;;;;;;;9.27;8.37;;;;;;;;;;2065904;28;20260;-50
2022/04/30 04:57:44;;;;;;;10.70;8.77;;;;;;;;;;2065750;28;20185;-52
2022/04/30 04:58:44;;;;;;;11.60;8.87;;;;;;;;;;2066301;28;20181;-52
2022/04/30 04:59:44;;;;;;;9.73;8.73;;;;;;;;;;2057385;28;20765;-55
2022/04/30 05:00:46;;;;;;;11.77;8.53;;;;;;;;;;2056657;28;20217;-50
2022/04/30 05:01:49;;;;;;;10.45;8.00;;;;;;;;;;2064184;28;20178;-51
2022/04/30 05:02:53;;;;;;;11.43;8.90;;;;;;;;;;2065220;28;20201;-52
2022/04/30 05:03:53;;;;;;;11.38;8.88;;;;;;;;;;2056887;28;20178;-49
2022/04/30 05:04:53;;;;;;;10.25;8.32;;;;;;;;;;2048550;28;20174;-50
2022/04/30 05:05:54;;;;;;;12.35;8.40;;;;;;;;;;2048647;29;20179;-53
2022/04/30 05:06:54;;;;;;;17.13;8.63;;;;;;;;;;2048010;28;20554;-52
2022/04/30 05:07:54;;;;;;;10.57;8.97;;;;;;;;;;2059192;28;20260;-51
2022/04/30 05:08:54;;;;;;;9.83;8.60;;;;;;;;;;2065085;28;20190;-50
2022/04/30 05:09:55;;;;;;;10.05;8.25;;;;;;;;;;2064001;28;20267;-52
2022/04/30 05:10:55;;;;;;;12.20;8.65;;;;;;;;;;2065078;28;20244;-50
2022/04/30 05:11:55;;;;;;;10.73;8.23;;;;;;;;;;2065415;28;20702;-52
2022/04/30 05:12:55;;;;;;;10.68;8.55;;;;;;;;;;2065178;28;20182;-52
2022/04/30 05:13:56;;;;;;;14.68;8.30;;;;;;;;;;2064681;28;20260;-50
2022/04/30 05:14:56;;;;;;;10.60;8.35;;;;;;;;;;2064466;28;20690;-50
2022/04/30 05:15:56;;;;;;;11.18;8.95;;;;;;;;;;2065474;28;20655;-52
2022/04/30 05:16:56;;;;;;;12.00;9.15;;;;;;;;;;2065191;28;20260;-52
2022/04/30 05:17:57;;;;;;;11.40;9.27;;;;;;;;;;2059590;28;20210;-53
2022/04/30 05:18:58;;;;;;;13.13;9.00;;;;;;;;;;2061578;28;20166;-51
2022/04/30 05:19:58;;;;;;;10.75;8.88;;;;;;;;;;2064352;28;20668;-53
2022/04/30 05:20:59;;;;;;;12.05;9.02;;;;;;;;;;2065408;28;20185;-52
2022/04/30 05:22:00;;;;;;;13.05;9.55;;;;;;;;;;2059908;28;20602;-50
2022/04/30 05:23:00;;;;;;;10.85;8.65;;;;;;;;;;2062641;28;20705;-53
2022/04/30 05:24:00;;;;;;;10.85;9.27;;;;;;;;;;2064427;28;20174;-49
2022/04/30 05:25:01;;;;;;;11.65;9.02;;;;;;;;;;2064607;28;20241;-50
2022/04/30 05:26:01;;;;;;;12.98;8.52;;;;;;;;;;2055214;28;20546;-53
2022/04/30 05:27:01;;;;;;;10.45;9.23;;;;;;;;;;2058764;28;20182;-50
2022/04/30 05:28:02;;;;;;;11.52;8.68;;;;;;;;;;2065331;28;20181;-51
2022/04/30 05:29:02;;;;;;;11.38;8.27;;;;;;;;;;2064956;28;20174;-50
2022/04/30 05:30:02;;;;;;;11.60;8.80;;;;;;;;;;2056498;28;20167;-53
2022/04/30 05:31:05;;;;;;;10.13;8.80;;;;;;;;;;2059176;28;20185;-50
2022/04/30 05:32:05;;;;;;;13.52;8.70;;;;;;;;;;2065280;28;20184;-52
2022/04/30 05:33:05;;;;;;;11.15;8.57;;;;;;;;;;2057703;28;20183;-53
2022/04/30 05:34:06;;;;;;;13.20;9.40;;;;;;;;;;2051510;28;20171;-50
2022/04/30 05:35:06;;;;;;;11.50;9.00;;;;;;;;;;2060065;28;20174;-52
2022/04/30 05:36:07;;;;;;;12.85;9.73;;;;;;;;;;2052644;28;20223;-52
2022/04/30 05:37:07;;;;;;;9.98;8.10;;;;;;;;;;2052174;28;20301;-50
2022/04/30 05:38:07;;;;;;;12.32;9.35;;;;;;;;;;2064914;28;20217;-50
2022/04/30 05:39:08;;;;;;;13.82;9.05;;;;;;;;;;2064786;28;20190;-55
2022/04/30 05:40:08;;;;;;;15.02;8.45;;;;;;;;;;2064344;28;20276;-51
2022/04/30 05:41:08;;;;;;;11.25;9.07;;;;;;;;;;2064807;28;20241;-51
2022/04/30 05:42:09;;;;;;;13.95;8.68;;;;;;;;;;2065294;28;20245;-56
2022/04/30 05:43:09;;;;;;;12.13;8.88;;;;;;;;;;2066701;28;20248;-53
2022/04/30 05:44:09;;;;;;;11.48;8.25;;;;;;;;;;2065284;28;20184;-54
2022/04/30 05:45:09;;;;;;;12.13;8.23;;;;;;;;;;2065567;28;20209;-54
2022/04/30 05:46:12;;;;;;;10.25;8.65;;;;;;;;;;2057064;28;20253;-50
2022/04/30 05:47:12;;;;;;;11.02;9.25;;;;;;;;;;2054128;28;20234;-52
2022/04/30 05:48:13;;;;;;;14.10;9.65;;;;;;;;;;2065280;28;20170;-53
2022/04/30 05:49:13;;;;;;;14.70;8.68;;;;;;;;;;2064361;28;20173;-50
2022/04/30 05:50:13;;;;;;;11.43;8.23;;;;;;;;;;2065116;28;20185;-51
2022/04/30 05:51:13;;;;;;;12.43;9.07;;;;;;;;;;2066460;28;20173;-51
2022/04/30 05:52:14;;;;;;;12.43;8.52;;;;;;;;;;2066528;28;20188;-51
2022/04/30 05:53:14;;;;;;;12.07;8.75;;;;;;;;;;2066360;28;20170;-52
2022/04/30 05:54:14;;;;;;;15.65;8.65;;;;;;;;;;2066124;28;20260;-52
2022/04/30 05:55:14;;;;;;;12.20;9.68;;;;;;;;;;2061328;28;20206;-54
2022/04/30 05:56:15;;;;;;;9.38;8.48;;;;;;;;;;2058145;28;20171;-53
2022/04/30 05:57:15;;;;;;;10.07;8.52;;;;;;;;;;2065883;28;20200;-51
2022/04/30 05:58:15;;;;;;;12.85;8.77;;;;;;;;;;2066077;28;20244;-52
2022/04/30 05:59:15;;;;;;;11.65;8.63;;;;;;;;;;2067204;28;20161;-51
2022/04/30 06:00:16;;;;;;;11.10;8.40;;;;;;;;;;2058716;28;20193;-53
2022/04/30 06:01:16;;;;;;;13.25;8.63;;;;;;;;;;2058668;28;20170;-51
2022/04/30 06:02:16;;;;;;;11.13;8.73;;;;;;;;;;2066864;28;20174;-52
2022/04/30 06:03:17;;;;;;;11.90;8.93;;;;;;;;;;2058446;28;20214;-52
2022/04/30 06:04:17;;;;;;;12.52;9.30;;;;;;;;;;2057904;28;20407;-52
2022/04/30 06:05:17;;;;;;;14.35;8.70;;;;;;;;;;2058495;28;20186;-54
2022/04/30 06:06:19;;;;;;;15.75;9.05;;;;;;;;;;2066818;28;20635;-51
2022/04/30 06:07:20;;;;;;;12.57;9.30;;;;;;;;;;2066905;28;20272;-51
2022/04/30 06:08:20;;;;;;;12.52;9.20;;;;;;;;;;2066819;28;20174;-50
2022/04/30 06:09:21;;;;;;;13.32;8.85;;;;;;;;;;2058094;28;20178;-52
2022/04/30 06:10:21;;;;;;;15.30;8.93;;;;;;;;;;2057340;28;20605;-50
2022/04/30 06:11:21;;;;;;;12.40;9.07;;;;;;;;;;2064653;28;20205;-53
2022/04/30 06:12:22;;;;;;;13.05;9.55;;;;;;;;;;2060380;28;20174;-51
2022/04/30 06:13:22;;;;;;;12.73;8.90;;;;;;;;;;2065657;28;20548;-52
2022/04/30 06:14:22;;;;;;;13.50;9.00;;;;;;;;;;2065603;28;20182;-50
2022/04/30 06:15:23;;;;;;;10.80;8.80;;;;;;;;;;2061825;28;20257;-52
2022/04/30 06:16:23;;;;;;;12.70;8.20;;;;;;;;;;2064717;28;20177;-51
2022/04/30 06:17:23;;;;;;;9.85;8.55;;;;;;;;;;2066328;28;20197;-49
2022/04/30 06:18:25;;;;;;;11.80;8.77;;;;;;;;;;2065593;28;20193;-51
2022/04/30 06:19:25;;;;;;;14.10;8.93;;;;;;;;;;2062920;28;20551;-51
2022/04/30 06:20:25;;;;;;;11.90;8.45;;;;;;;;;;2060915;28;20261;-50
2022/04/30 06:21:26;;;;;;;11.07;9.05;;;;;;;;;;2064562;28;20178;-51
2022/04/30 06:22:26;;;;;;;10.95;9.95;;;;;;;;;;2065067;28;20252;-52
2022/04/30 06:23:26;;;;;;;15.60;9.40;;;;;;;;;;2065481;28;20217;-54
2022/04/30 06:24:26;;;;;;;15.38;9.50;;;;;;;;;;2056155;28;20170;-50
2022/04/30 06:25:27;;;;;;;11.00;8.75;;;;;;;;;;2057103;28;20217;-50